Terminal Aerodrome Forecast
Issued by NWS

Home | Current Version | Previous Version | Text Only | Print | Product List | Glossary On
Versions: 1 2 3 4 5 6 7 8 9 10 11 12
000
FTUS45 KRIW 280526
TAFCPR
TAF
KCPR 280526Z 2806/2906 07014G22KT P6SM VCSH FEW070 SCT100
     FM280800 36011KT P6SM VCSH FEW035 SCT080
     FM281600 03007KT P6SM SCT080
     FM282100 04009KT P6SM VCTS SCT060CB BKN120
     FM290300 08010KT P6SM VCSH SCT080 BKN140=

USA.gov is the U.S. government's official web portal to all federal, state and local government web resources and services.